Time;durP1;ratioP1;P1;durP2;ratioP2;P2;SDS_P1;SDS_P2;PMS_P1;PMS_P2;Temp;Humidity;BMP_temperature;BMP_pressure;BME280_temperature;BME280_humidity;BME280_pressure;Samples;Min_cycle;Max_cycle;Signal;HPM_P1;HPM_P2
2022/11/25 00:01:14;;;;;;;17.93;8.53;;;4.10;99.90;;;;;;5013012;28;20415;-92
2022/11/25 00:03:41;;;;;;;14.97;8.07;;;4.10;99.90;;;;;;5013165;28;20418;-86
2022/11/25 00:06:18;;;;;;;15.53;7.77;;;4.20;99.90;;;;;;4995727;28;20490;-86
2022/11/25 00:08:46;;;;;;;13.43;7.13;;;4.20;99.90;;;;;;5012935;28;20418;-85
2022/11/25 00:11:12;;;;;;;16.83;6.93;;;4.10;99.90;;;;;;5013512;28;20403;-89
2022/11/25 00:13:39;;;;;;;17.23;7.70;;;4.20;99.90;;;;;;5013264;28;20411;-90
2022/11/25 00:16:10;;;;;;;12.23;6.40;;;4.10;99.90;;;;;;5012757;28;20416;-85
2022/11/25 00:18:35;;;;;;;27.60;8.07;;;4.10;99.90;;;;;;4995110;28;20414;-90
2022/11/25 00:21:09;;;;;;;14.40;7.00;;;4.00;99.90;;;;;;5012836;28;20418;-85
2022/11/25 00:23:35;;;;;;;25.40;8.40;;;4.10;99.90;;;;;;5012244;28;20217;-89
2022/11/25 00:26:15;;;;;;;26.00;8.07;;;4.10;99.90;;;;;;5016441;28;20490;-95
2022/11/25 00:28:42;;;;;;;11.53;6.90;;;4.10;99.90;;;;;;5015266;28;20508;-95
2022/11/25 00:31:18;;;;;;;32.73;7.80;;;4.10;99.90;;;;;;5022374;28;20405;-94
2022/11/25 00:33:44;;;;;;;32.67;7.90;;;4.00;99.90;;;;;;5008458;28;20418;-85
2022/11/25 00:36:21;;;;;;;17.00;7.30;;;4.00;99.90;;;;;;5020265;28;20462;-87
2022/11/25 00:38:51;;;;;;;26.30;8.27;;;4.10;99.90;;;;;;5005808;28;20411;-89
2022/11/25 00:46:44;;;;;;;23.73;6.83;;;4.00;99.90;;;;;;5024617;28;20581;-91
2022/11/25 00:49:10;;;;;;;21.50;7.17;;;4.00;99.90;;;;;;5023753;28;20438;-84
2022/11/25 00:51:39;;;;;;;19.53;7.00;;;3.90;99.90;;;;;;5010994;28;20181;-89
2022/11/25 00:54:04;;;;;;;28.90;6.13;;;3.90;99.90;;;;;;5024083;28;20171;-94
2022/11/25 00:56:30;;;;;;;22.33;7.07;;;3.90;99.90;;;;;;5006144;28;20429;-89
2022/11/25 00:58:58;;;;;;;17.40;5.63;;;3.90;99.90;;;;;;5021346;28;20667;-95
2022/11/25 01:01:24;;;;;;;21.87;5.30;;;3.80;99.90;;;;;;4999972;28;20508;-96
2022/11/25 01:03:51;;;;;;;16.80;6.57;;;3.80;99.90;;;;;;5018775;28;20490;-85
2022/11/25 01:06:16;;;;;;;17.83;6.47;;;3.80;99.90;;;;;;5018922;28;20866;-90
2022/11/25 01:08:42;;;;;;;22.10;7.10;;;3.70;99.90;;;;;;4999793;28;20476;-87
2022/11/25 01:11:10;;;;;;;14.63;7.03;;;3.70;99.90;;;;;;5000166;28;20172;-89
2022/11/25 01:13:36;;;;;;;14.30;5.33;;;3.80;99.90;;;;;;5018368;28;20173;-91
2022/11/25 01:16:23;;;;;;;21.03;7.40;;;3.80;99.90;;;;;;5020265;28;20940;-94
2022/11/25 01:18:49;;;;;;;24.40;7.10;;;3.80;99.90;;;;;;5025734;28;20211;-84
2022/11/25 01:21:23;;;;;;;13.63;7.10;;;3.80;99.90;;;;;;5031928;28;20447;-88
2022/11/25 01:23:50;;;;;;;11.57;7.60;;;3.90;99.90;;;;;;5025705;28;20441;-92
2022/11/25 01:26:18;;;;;;;11.97;8.10;;;3.90;99.90;;;;;;5026863;28;20461;-84
2022/11/25 01:28:44;;;;;;;13.10;8.60;;;3.90;99.90;;;;;;5025661;23;20471;-86
2022/11/25 01:31:16;;;;;;;13.50;8.00;;;3.90;99.90;;;;;;4998292;28;20422;-92
2022/11/25 01:33:43;;;;;;;15.03;6.93;;;3.90;99.90;;;;;;5004618;23;20483;-95
2022/11/25 01:36:11;;;;;;;15.37;9.03;;;3.90;99.90;;;;;;5013654;23;20556;-85
2022/11/25 01:38:37;;;;;;;15.13;7.00;;;3.80;99.90;;;;;;5012293;28;20523;-83
2022/11/25 01:41:04;;;;;;;28.17;9.00;;;3.80;99.90;;;;;;4992378;28;20400;-84
2022/11/25 01:43:36;;;;;;;13.07;8.57;;;3.80;99.90;;;;;;4995924;28;20183;-83
2022/11/25 01:46:20;;;;;;;11.67;7.70;;;3.80;99.90;;;;;;5012345;28;20447;-83
2022/11/25 01:48:57;;;;;;;10.83;6.40;;;3.70;99.90;;;;;;4996047;23;20476;-83
2022/11/25 01:51:32;;;;;;;10.27;6.80;;;3.70;99.90;;;;;;4993003;28;20420;-84
2022/11/25 01:54:02;;;;;;;14.37;8.10;;;3.70;99.90;;;;;;5012753;23;20497;-84
2022/11/25 01:56:34;;;;;;;14.07;8.13;;;3.80;99.90;;;;;;5007093;28;20415;-84
2022/11/25 01:59:01;;;;;;;15.00;7.20;;;3.80;99.90;;;;;;4992771;28;20490;-84
2022/11/25 02:01:26;;;;;;;19.53;8.33;;;3.90;99.90;;;;;;4993092;28;20429;-95
2022/11/25 02:03:55;;;;;;;16.40;9.10;;;3.90;99.90;;;;;;4988003;28;20423;-92
2022/11/25 02:06:32;;;;;;;14.97;9.47;;;3.90;99.90;;;;;;4988817;28;20233;-91
2022/11/25 02:09:04;;;;;;;14.77;8.00;;;3.90;99.90;;;;;;5010912;28;20423;-83
2022/11/25 02:11:30;;;;;;;16.57;8.20;;;3.90;99.90;;;;;;5011816;28;20454;-94
2022/11/25 02:14:00;;;;;;;16.27;9.73;;;3.90;99.90;;;;;;5012736;28;20422;-84
2022/11/25 02:16:26;;;;;;;18.53;8.03;;;4.00;99.90;;;;;;5007666;28;20415;-83
2022/11/25 02:18:51;;;;;;;15.30;9.00;;;4.00;99.90;;;;;;5030890;28;20422;-89
2022/11/25 02:21:24;;;;;;;20.00;10.33;;;4.00;99.90;;;;;;5009340;28;20198;-96
2022/11/25 02:24:17;;;;;;;13.30;7.80;;;4.00;99.90;;;;;;5030663;28;20189;-87
2022/11/25 02:26:43;;;;;;;18.10;9.67;;;4.10;99.90;;;;;;4993942;28;20521;-85
2022/11/25 02:29:09;;;;;;;17.30;9.07;;;4.00;99.90;;;;;;5018390;22;20490;-83
2022/11/25 02:31:34;;;;;;;14.67;7.90;;;4.00;99.90;;;;;;5010204;28;20209;-83
2022/11/25 02:34:00;;;;;;;15.83;8.53;;;3.90;99.90;;;;;;5003630;28;20177;-84
2022/11/25 02:36:25;;;;;;;17.40;9.40;;;3.90;99.90;;;;;;5006632;28;20172;-83
2022/11/25 02:38:55;;;;;;;18.93;8.73;;;3.90;99.90;;;;;;5006716;28;20182;-84
2022/11/25 02:41:31;;;;;;;15.03;8.90;;;3.90;99.90;;;;;;5005683;28;20180;-84
2022/11/25 02:43:56;;;;;;;13.70;8.40;;;3.90;99.90;;;;;;5007737;28;20433;-85
2022/11/25 02:46:23;;;;;;;16.47;10.47;;;3.90;99.90;;;;;;5011439;23;21589;-96
2022/11/25 02:48:51;;;;;;;20.60;10.93;;;3.90;99.90;;;;;;4980554;28;20267;-91
2022/11/25 02:51:20;;;;;;;16.17;7.80;;;3.80;99.90;;;;;;4976481;28;20485;-92
2022/11/25 02:53:46;;;;;;;11.73;7.77;;;3.80;99.90;;;;;;4994375;28;20427;-91
2022/11/25 02:56:13;;;;;;;17.73;8.50;;;3.70;99.90;;;;;;4994707;28;20416;-89
2022/11/25 02:58:39;;;;;;;11.37;6.87;;;3.70;99.90;;;;;;4977224;28;20580;-91
2022/11/25 03:01:05;;;;;;;12.37;7.23;;;3.70;99.90;;;;;;4992867;28;20438;-85
2022/11/25 03:03:30;;;;;;;28.33;8.77;;;3.60;99.90;;;;;;4994334;28;20419;-83
2022/11/25 03:05:56;;;;;;;34.63;8.97;;;3.50;99.90;;;;;;4994047;28;20506;-84
2022/11/25 03:08:21;;;;;;;18.27;8.90;;;3.50;99.90;;;;;;4993058;28;20191;-93
2022/11/25 03:10:47;;;;;;;33.73;9.73;;;3.40;99.90;;;;;;4976508;28;20179;-83
2022/11/25 03:13:12;;;;;;;39.47;9.90;;;3.40;99.90;;;;;;4977366;28;20567;-93
2022/11/25 03:15:41;;;;;;;22.00;9.10;;;3.40;99.90;;;;;;4993663;28;20186;-83
2022/11/25 03:18:16;;;;;;;32.43;7.83;;;3.30;99.90;;;;;;4992848;28;20653;-92
2022/11/25 03:20:41;;;;;;;15.50;7.60;;;3.30;99.90;;;;;;4993099;28;20411;-83
2022/11/25 03:23:07;;;;;;;47.73;8.17;;;3.30;99.90;;;;;;4994274;28;20828;-84
2022/11/25 03:25:34;;;;;;;23.43;8.83;;;3.30;99.90;;;;;;4994208;28;20178;-89
2022/11/25 03:28:00;;;;;;;32.77;8.73;;;3.20;99.90;;;;;;4992966;28;20693;-92
2022/11/25 03:30:28;;;;;;;29.07;10.30;;;3.20;99.90;;;;;;4993648;28;20434;-83
2022/11/25 03:32:53;;;;;;;27.10;8.97;;;3.10;99.90;;;;;;4998948;28;20177;-94
2022/11/25 03:35:19;;;;;;;19.97;9.17;;;3.20;99.90;;;;;;4995813;28;20511;-95
2022/11/25 03:37:45;;;;;;;16.70;8.03;;;3.10;99.90;;;;;;4998177;28;20183;-93
2022/11/25 03:40:12;;;;;;;12.77;6.87;;;3.20;99.90;;;;;;4994969;28;20573;-94
2022/11/25 03:42:37;;;;;;;19.23;8.23;;;3.20;99.90;;;;;;4980964;28;20183;-83
2022/11/25 03:45:04;;;;;;;16.07;8.50;;;3.20;99.90;;;;;;4996486;28;20419;-83
2022/11/25 03:47:30;;;;;;;17.70;8.27;;;3.30;99.90;;;;;;4980645;28;20711;-83
2022/11/25 03:49:55;;;;;;;17.40;8.43;;;3.30;99.90;;;;;;4996380;28;20407;-92
2022/11/25 03:52:21;;;;;;;15.73;7.50;;;3.20;99.90;;;;;;4992912;28;20530;-94
2022/11/25 03:54:46;;;;;;;15.10;7.47;;;3.20;99.90;;;;;;4993175;28;20173;-93
2022/11/25 03:57:12;;;;;;;17.17;8.30;;;3.10;99.90;;;;;;4977326;28;20206;-87
2022/11/25 03:59:37;;;;;;;12.93;5.90;;;3.20;99.90;;;;;;4997299;28;20195;-84
2022/11/25 04:02:03;;;;;;;14.57;8.07;;;3.20;99.90;;;;;;5007688;28;20190;-83
2022/11/25 04:04:29;;;;;;;13.37;8.00;;;3.20;99.90;;;;;;5010395;28;20238;-87
2022/11/25 04:06:54;;;;;;;9.13;4.47;;;3.20;99.90;;;;;;5007570;28;20196;-89
2022/11/25 04:09:20;;;;;;;16.73;7.93;;;3.30;99.90;;;;;;5011215;28;20204;-85
2022/11/25 04:14:30;;;;;;;11.23;6.73;;;3.30;99.90;;;;;;5013413;28;20179;-84
2022/11/25 04:16:56;;;;;;;13.07;7.67;;;3.30;99.90;;;;;;5011835;28;20498;-83
2022/11/25 04:19:22;;;;;;;13.47;7.03;;;3.30;99.90;;;;;;5079401;23;20538;-88
2022/11/25 04:21:47;;;;;;;13.20;7.40;;;3.30;99.90;;;;;;5006172;28;20180;-89
2022/11/25 04:24:13;;;;;;;17.17;8.07;;;3.30;99.90;;;;;;5002736;28;20915;-87
2022/11/25 04:26:39;;;;;;;9.93;7.20;;;3.30;99.90;;;;;;5009227;28;20203;-84
2022/11/25 04:29:05;;;;;;;13.43;6.57;;;3.30;99.90;;;;;;5008477;28;20195;-90
2022/11/25 04:31:30;;;;;;;18.40;7.83;;;3.30;99.90;;;;;;4990655;28;20175;-93
2022/11/25 04:33:56;;;;;;;12.43;6.90;;;3.30;99.90;;;;;;5004375;28;20184;-95
2022/11/25 04:36:21;;;;;;;13.47;8.40;;;3.30;99.90;;;;;;5006337;28;20176;-91
2022/11/25 04:38:46;;;;;;;16.13;8.57;;;3.30;99.90;;;;;;5007268;28;20177;-88
2022/11/25 04:41:12;;;;;;;15.80;8.30;;;3.30;99.90;;;;;;4997719;28;20183;-84
2022/11/25 04:43:37;;;;;;;12.63;8.10;;;3.30;99.90;;;;;;4996679;28;20187;-86
2022/11/25 04:46:03;;;;;;;12.93;7.70;;;3.40;99.90;;;;;;5008142;28;20172;-83
2022/11/25 04:48:29;;;;;;;12.53;6.50;;;3.40;99.90;;;;;;5007995;28;20164;-83
2022/11/25 04:50:55;;;;;;;20.90;9.73;;;3.40;99.90;;;;;;4998336;28;20430;-92
2022/11/25 04:53:21;;;;;;;11.00;6.63;;;3.40;99.90;;;;;;4996669;28;20195;-84
2022/11/25 04:55:46;;;;;;;14.70;9.43;;;3.40;99.90;;;;;;4979520;28;20182;-84
2022/11/25 04:58:12;;;;;;;13.13;8.03;;;3.40;99.90;;;;;;4996449;28;20254;-84
2022/11/25 05:00:37;;;;;;;15.30;8.07;;;3.30;99.90;;;;;;4996660;28;20259;-91
2022/11/25 05:03:03;;;;;;;14.53;8.63;;;3.40;99.90;;;;;;4996640;28;20177;-87
2022/11/25 05:05:29;;;;;;;13.33;8.70;;;3.40;99.90;;;;;;4996491;28;20229;-91
2022/11/25 05:07:55;;;;;;;12.77;6.73;;;3.30;99.90;;;;;;4996191;28;20218;-84
2022/11/25 05:10:21;;;;;;;13.50;7.67;;;3.30;99.90;;;;;;4978994;28;20628;-84
2022/11/25 05:12:46;;;;;;;14.90;8.67;;;3.30;99.90;;;;;;4978868;28;20570;-92
2022/11/25 05:15:12;;;;;;;14.53;8.63;;;3.20;99.90;;;;;;4995428;28;20200;-92
2022/11/25 05:17:38;;;;;;;14.27;8.30;;;3.20;99.90;;;;;;4996173;28;20202;-88
2022/11/25 05:20:05;;;;;;;16.90;8.80;;;3.30;99.90;;;;;;4996154;28;20704;-85
2022/11/25 05:22:32;;;;;;;15.47;7.70;;;3.30;99.90;;;;;;4978619;28;20424;-83
2022/11/25 05:24:58;;;;;;;16.43;9.47;;;3.30;99.90;;;;;;4995973;28;20423;-86
2022/11/25 05:27:25;;;;;;;21.17;8.87;;;3.30;99.90;;;;;;4996876;28;20528;-83
2022/11/25 05:29:51;;;;;;;14.70;7.60;;;3.20;99.90;;;;;;4995825;28;20429;-90
2022/11/25 05:32:16;;;;;;;17.50;8.47;;;3.20;99.90;;;;;;4979045;28;20438;-89
2022/11/25 05:34:42;;;;;;;13.60;6.80;;;3.20;99.90;;;;;;4978983;28;20173;-89
2022/11/25 05:37:12;;;;;;;14.43;7.20;;;3.20;99.90;;;;;;4994957;28;20187;-83
2022/11/25 05:39:38;;;;;;;14.17;8.40;;;3.30;99.90;;;;;;4996292;28;20189;-92
2022/11/25 05:42:03;;;;;;;17.43;8.57;;;3.20;99.90;;;;;;4978714;28;20958;-92
2022/11/25 05:44:32;;;;;;;12.20;6.70;;;3.30;99.90;;;;;;4995904;28;20167;-85
2022/11/25 05:46:57;;;;;;;15.03;9.07;;;3.30;99.90;;;;;;4995609;28;20321;-83
2022/11/25 05:49:23;;;;;;;15.90;7.47;;;3.30;99.90;;;;;;4978267;28;20966;-88
2022/11/25 05:51:48;;;;;;;13.50;8.50;;;3.30;99.90;;;;;;4995755;28;20271;-83
2022/11/25 05:54:14;;;;;;;15.17;8.80;;;3.30;99.90;;;;;;4995571;28;20632;-89
2022/11/25 05:56:40;;;;;;;18.53;6.47;;;3.40;99.90;;;;;;4995471;28;20737;-91
2022/11/25 05:59:05;;;;;;;13.50;6.93;;;3.50;99.90;;;;;;4997414;28;20245;-87
2022/11/25 06:01:32;;;;;;;11.33;6.70;;;3.40;99.90;;;;;;4995754;28;20171;-94
2022/11/25 06:04:02;;;;;;;14.43;6.93;;;3.40;99.90;;;;;;4993846;28;20616;-83
2022/11/25 06:06:28;;;;;;;10.93;5.67;;;3.40;99.90;;;;;;4995054;28;20973;-88
2022/11/25 06:08:54;;;;;;;16.57;7.33;;;3.50;99.90;;;;;;4995064;28;20429;-84
2022/11/25 06:11:20;;;;;;;12.23;6.70;;;3.50;99.90;;;;;;4994573;28;20856;-90
2022/11/25 06:13:46;;;;;;;14.37;6.80;;;3.50;99.90;;;;;;4994434;28;20514;-91
2022/11/25 06:16:15;;;;;;;11.93;7.37;;;3.50;99.90;;;;;;4994459;28;20430;-92
2022/11/25 06:18:40;;;;;;;8.40;5.47;;;3.50;99.90;;;;;;4995475;28;20318;-83
2022/11/25 06:21:07;;;;;;;13.57;7.43;;;3.50;99.90;;;;;;4977575;28;20529;-85
2022/11/25 06:23:33;;;;;;;14.00;6.33;;;3.50;99.90;;;;;;4978584;28;20176;-87
2022/11/25 06:26:17;;;;;;;12.23;7.50;;;3.60;99.90;;;;;;4977049;28;20500;-88
2022/11/25 06:28:43;;;;;;;7.47;3.80;;;3.70;99.90;;;;;;4977893;28;20441;-89
2022/11/25 06:31:20;;;;;;;13.03;4.10;;;3.70;99.90;;;;;;4996283;28;20403;-87
2022/11/25 06:33:47;;;;;;;11.23;5.03;;;3.70;99.90;;;;;;4994705;28;20434;-90
2022/11/25 06:36:15;;;;;;;6.70;4.27;;;3.70;99.90;;;;;;4998257;28;20447;-83
2022/11/25 06:38:48;;;;;;;11.43;4.70;;;3.70;99.90;;;;;;4998621;28;20506;-84
2022/11/25 06:41:15;;;;;;;10.37;5.20;;;3.60;99.90;;;;;;4996172;28;20478;-93
2022/11/25 06:43:41;;;;;;;11.17;4.90;;;3.60;99.90;;;;;;4998948;28;20772;-83
2022/11/25 06:46:09;;;;;;;10.40;4.63;;;3.60;99.90;;;;;;5003431;28;20462;-95
2022/11/25 06:48:36;;;;;;;8.73;5.60;;;3.60;99.90;;;;;;4994060;28;20180;-93
2022/11/25 06:51:04;;;;;;;13.83;5.03;;;3.60;99.90;;;;;;4978837;28;20864;-85
2022/11/25 06:53:31;;;;;;;11.57;4.50;;;3.60;99.90;;;;;;4995456;28;20458;-88
2022/11/25 06:56:17;;;;;;;12.67;5.57;;;3.60;99.90;;;;;;4996084;28;20452;-83
2022/11/25 06:58:44;;;;;;;8.87;4.83;;;3.60;99.90;;;;;;4977100;28;20423;-90
2022/11/25 07:01:19;;;;;;;11.43;5.33;;;3.60;99.90;;;;;;4994793;28;20415;-91
2022/11/25 07:03:46;;;;;;;10.70;5.53;;;3.70;99.90;;;;;;4993886;28;20517;-86
2022/11/25 07:06:14;;;;;;;9.73;4.00;;;3.80;99.90;;;;;;4978891;28;20558;-91
2022/11/25 07:08:40;;;;;;;12.53;5.37;;;3.90;99.90;;;;;;4995136;28;20518;-87
2022/11/25 07:11:24;;;;;;;10.23;3.83;;;4.00;99.90;;;;;;4995472;28;20407;-86
2022/11/25 07:13:55;;;;;;;8.90;4.97;;;4.00;99.90;;;;;;4995863;28;20422;-86
2022/11/25 07:16:21;;;;;;;11.37;4.70;;;4.00;99.90;;;;;;4993404;28;20793;-84
2022/11/25 07:18:46;;;;;;;8.63;4.00;;;4.10;99.90;;;;;;4992633;28;20419;-88
2022/11/25 07:21:14;;;;;;;11.80;5.73;;;4.10;99.90;;;;;;4976670;28;20235;-92
2022/11/25 07:23:41;;;;;;;12.90;4.40;;;4.10;99.90;;;;;;4976526;28;20664;-89
2022/11/25 07:26:16;;;;;;;11.03;4.60;;;4.20;99.90;;;;;;4976660;28;20431;-84
2022/11/25 07:28:42;;;;;;;8.97;4.90;;;4.10;99.90;;;;;;4993471;28;20440;-88
2022/11/25 07:31:10;;;;;;;7.30;4.73;;;4.20;99.90;;;;;;4993985;28;20415;-91
2022/11/25 07:33:36;;;;;;;7.07;4.37;;;4.20;99.90;;;;;;4994412;28;20449;-91
2022/11/25 07:36:07;;;;;;;15.50;6.27;;;4.20;99.90;;;;;;4977508;28;20469;-91
2022/11/25 07:38:34;;;;;;;20.90;7.70;;;4.20;99.90;;;;;;4997295;28;20427;-88
2022/11/25 07:41:08;;;;;;;15.00;12.47;;;4.20;99.90;;;;;;4998353;28;20416;-86
2022/11/25 07:43:34;;;;;;;15.13;8.73;;;4.20;99.90;;;;;;4998495;28;20764;-90
2022/11/25 07:46:14;;;;;;;15.97;9.30;;;4.20;99.90;;;;;;4997908;28;20498;-85
2022/11/25 07:48:40;;;;;;;12.30;6.87;;;4.20;99.90;;;;;;4980413;28;20196;-90
2022/11/25 07:51:20;;;;;;;10.37;5.70;;;4.20;99.90;;;;;;4997581;28;20429;-86
2022/11/25 07:53:48;;;;;;;9.80;4.57;;;4.20;99.90;;;;;;4999569;28;20424;-85
2022/11/25 07:56:14;;;;;;;8.43;4.40;;;4.20;99.90;;;;;;4997224;28;21010;-89
2022/11/25 07:58:41;;;;;;;8.30;3.73;;;4.30;99.90;;;;;;4997884;28;20851;-90
2022/11/25 08:01:08;;;;;;;9.30;4.53;;;4.30;99.90;;;;;;4980157;28;21005;-86
2022/11/25 08:03:35;;;;;;;10.77;4.67;;;4.30;99.90;;;;;;4998156;28;20939;-89
2022/11/25 08:06:03;;;;;;;10.77;4.30;;;4.30;99.90;;;;;;4979540;28;20830;-87
2022/11/25 08:08:29;;;;;;;7.33;3.57;;;4.30;99.90;;;;;;4998072;28;20452;-85
2022/11/25 08:10:57;;;;;;;11.87;5.03;;;4.30;99.90;;;;;;4980351;28;20415;-91
2022/11/25 08:13:22;;;;;;;8.30;3.70;;;4.40;99.90;;;;;;4998310;28;20171;-86
2022/11/25 08:15:48;;;;;;;7.10;3.57;;;4.50;99.90;;;;;;4997240;28;20407;-84
2022/11/25 08:18:13;;;;;;;8.07;4.30;;;4.40;99.90;;;;;;4980949;28;20176;-87
2022/11/25 08:20:39;;;;;;;14.20;4.30;;;4.50;99.90;;;;;;4980803;28;20223;-84
2022/11/25 08:23:05;;;;;;;8.40;4.33;;;4.50;99.90;;;;;;4980587;28;20191;-91
2022/11/25 08:25:31;;;;;;;9.13;4.97;;;4.50;99.90;;;;;;4998218;28;20180;-91
2022/11/25 08:27:59;;;;;;;11.50;5.23;;;4.50;99.90;;;;;;4998211;28;20718;-89
2022/11/25 08:30:25;;;;;;;20.83;4.70;;;4.60;99.90;;;;;;4996942;28;20171;-89
2022/11/25 08:32:52;;;;;;;6.23;3.03;;;4.60;99.90;;;;;;4997253;28;20981;-86
2022/11/25 08:35:19;;;;;;;11.23;3.90;;;4.60;99.90;;;;;;4996281;28;20931;-85
2022/11/25 08:37:45;;;;;;;12.37;4.93;;;4.60;99.90;;;;;;4997533;28;20506;-83
2022/11/25 08:40:10;;;;;;;16.80;6.37;;;4.70;99.90;;;;;;4996506;28;20834;-87
2022/11/25 08:42:43;;;;;;;6.90;4.23;;;4.70;99.90;;;;;;4996706;28;20419;-86
2022/11/25 08:45:11;;;;;;;11.07;4.00;;;4.70;99.90;;;;;;4996282;28;20952;-84
2022/11/25 08:47:37;;;;;;;9.73;4.20;;;4.70;99.90;;;;;;4996713;28;20833;-83
2022/11/25 08:50:07;;;;;;;10.97;4.10;;;4.70;99.90;;;;;;4995448;28;20504;-87
2022/11/25 08:52:32;;;;;;;11.50;5.20;;;4.70;99.90;;;;;;4979202;28;20236;-84
2022/11/25 08:54:58;;;;;;;14.83;5.13;;;4.80;99.90;;;;;;4996950;28;20926;-82
2022/11/25 08:57:24;;;;;;;7.90;4.60;;;4.70;99.90;;;;;;4988762;28;20215;-85
2022/11/25 08:59:49;;;;;;;7.57;4.40;;;4.70;99.90;;;;;;4996681;28;20698;-83
2022/11/25 09:02:16;;;;;;;12.03;4.73;;;4.80;99.90;;;;;;4996860;28;20181;-83
2022/11/25 09:04:42;;;;;;;6.80;3.30;;;4.80;99.90;;;;;;4996596;28;20168;-89
2022/11/25 09:07:08;;;;;;;6.53;4.17;;;4.80;99.90;;;;;;4997129;28;20503;-83
2022/11/25 09:09:37;;;;;;;7.13;2.93;;;4.90;99.90;;;;;;4996701;28;20226;-85
2022/11/25 09:12:03;;;;;;;9.83;3.60;;;4.90;99.90;;;;;;4996929;28;20172;-85
2022/11/25 09:14:31;;;;;;;5.53;3.30;;;4.90;99.90;;;;;;4978895;28;20415;-83
2022/11/25 09:16:56;;;;;;;10.33;3.40;;;5.00;99.90;;;;;;4997425;28;20176;-84
2022/11/25 09:19:22;;;;;;;9.50;4.67;;;5.00;99.90;;;;;;4997618;28;20430;-84
2022/11/25 09:21:48;;;;;;;9.63;4.00;;;5.00;99.90;;;;;;4998405;28;20180;-83
2022/11/25 09:24:13;;;;;;;7.77;4.33;;;5.10;99.90;;;;;;4998045;28;20187;-86
2022/11/25 09:26:41;;;;;;;6.20;2.90;;;5.10;99.90;;;;;;4998387;28;20209;-85
2022/11/25 09:29:07;;;;;;;11.80;4.23;;;5.10;99.90;;;;;;4998807;28;20164;-84
2022/11/25 09:31:33;;;;;;;7.53;3.93;;;5.20;99.90;;;;;;4997662;28;20420;-85
2022/11/25 09:33:58;;;;;;;10.50;4.30;;;5.20;99.90;;;;;;4997214;28;20413;-83
2022/11/25 09:36:24;;;;;;;9.30;4.10;;;5.20;99.90;;;;;;4989756;28;20173;-88
2022/11/25 09:38:51;;;;;;;6.70;3.90;;;5.20;99.90;;;;;;4980085;28;20176;-88
2022/11/25 09:47:40;;;;;;;11.20;6.37;;;5.10;99.90;;;;;;4998826;28;21025;-86
2022/11/25 09:50:33;;;;;;;8.60;5.30;;;5.10;99.90;;;;;;4998977;28;20414;-90
2022/11/25 09:53:19;;;;;;;8.17;4.80;;;5.00;99.90;;;;;;4996241;28;20415;-89
2022/11/25 09:55:48;;;;;;;5.47;4.20;;;5.10;99.90;;;;;;4995153;28;20451;-83
2022/11/25 09:58:33;;;;;;;12.87;4.10;;;5.10;99.90;;;;;;4996928;28;20943;-84
2022/11/25 10:01:03;;;;;;;11.27;3.60;;;5.10;99.90;;;;;;4981787;28;20414;-86
2022/11/25 10:03:49;;;;;;;11.70;5.27;;;5.10;99.90;;;;;;4999640;28;20443;-90
2022/11/25 10:06:27;;;;;;;6.17;3.57;;;5.10;99.90;;;;;;4978385;28;20486;-87
2022/11/25 10:08:59;;;;;;;8.90;3.60;;;5.10;99.90;;;;;;4999535;28;20430;-88
2022/11/25 10:11:54;;;;;;;7.77;4.40;;;5.10;99.90;;;;;;4996081;28;20424;-86
2022/11/25 10:14:29;;;;;;;5.90;3.23;;;5.10;99.90;;;;;;4994794;28;20413;-83
2022/11/25 10:17:25;;;;;;;7.67;2.77;;;5.10;99.90;;;;;;4979464;28;20939;-83
2022/11/25 10:20:16;;;;;;;7.73;3.70;;;5.10;99.90;;;;;;4995257;28;21047;-82
2022/11/25 10:22:44;;;;;;;8.30;3.60;;;5.10;99.90;;;;;;4996307;28;20421;-82
2022/11/25 10:25:23;;;;;;;10.00;4.50;;;5.20;99.90;;;;;;4995672;28;20972;-84
2022/11/25 10:28:22;;;;;;;10.07;3.90;;;5.20;99.90;;;;;;4995143;28;20498;-83
2022/11/25 10:31:12;;;;;;;9.00;4.07;;;5.20;99.90;;;;;;4994972;28;20403;-82
2022/11/25 10:33:57;;;;;;;5.80;3.60;;;5.30;99.90;;;;;;4995212;28;20415;-83
2022/11/25 10:36:35;;;;;;;9.90;4.43;;;5.30;99.90;;;;;;4978202;28;20434;-86
2022/11/25 10:39:09;;;;;;;9.20;5.50;;;5.30;99.90;;;;;;4995053;28;20735;-86
2022/11/25 10:42:11;;;;;;;9.33;4.50;;;5.40;99.90;;;;;;4994740;28;20409;-83
2022/11/25 10:44:39;;;;;;;11.43;5.50;;;5.40;99.90;;;;;;4961755;28;20437;-82
2022/11/25 10:47:31;;;;;;;11.80;4.67;;;5.50;99.90;;;;;;4994205;28;20530;-82
2022/11/25 10:50:17;;;;;;;5.57;3.70;;;5.40;99.90;;;;;;4994246;28;20443;-82
2022/11/25 10:53:07;;;;;;;8.93;4.90;;;5.50;99.90;;;;;;4994338;28;20497;-83
2022/11/25 10:55:33;;;;;;;11.30;3.80;;;5.40;99.90;;;;;;4994303;28;20766;-83
2022/11/25 10:58:19;;;;;;;11.63;4.20;;;5.40;99.90;;;;;;4994126;28;20416;-83
2022/11/25 11:00:47;;;;;;;8.80;3.93;;;5.50;99.90;;;;;;4994016;28;20658;-82
2022/11/25 11:03:24;;;;;;;8.10;3.37;;;5.50;99.90;;;;;;4994030;28;20916;-82
2022/11/25 11:05:52;;;;;;;9.97;3.87;;;5.50;99.90;;;;;;4993979;28;20919;-82
2022/11/25 11:08:24;;;;;;;5.60;3.60;;;5.50;99.90;;;;;;4993908;28;20479;-83
2022/11/25 11:11:20;;;;;;;10.30;4.40;;;5.50;99.90;;;;;;4976629;28;21001;-82
2022/11/25 11:13:47;;;;;;;8.60;4.37;;;5.50;99.90;;;;;;4992894;28;20817;-83
2022/11/25 11:16:27;;;;;;;9.20;3.90;;;5.50;99.90;;;;;;4992880;28;20427;-83
2022/11/25 11:18:53;;;;;;;5.00;3.63;;;5.60;99.90;;;;;;4993937;28;20516;-82
2022/11/25 11:21:30;;;;;;;5.03;4.17;;;5.70;99.90;;;;;;4993684;28;20452;-83
2022/11/25 11:23:56;;;;;;;11.07;4.40;;;5.70;99.90;;;;;;4976369;28;20443;-82
2022/11/25 11:26:28;;;;;;;6.07;3.97;;;5.80;99.90;;;;;;4993497;28;20974;-82
2022/11/25 11:29:04;;;;;;;6.70;3.87;;;5.80;99.90;;;;;;4992192;28;20459;-82
2022/11/25 11:31:38;;;;;;;7.17;4.00;;;5.90;99.90;;;;;;4993959;28;20429;-83
2022/11/25 11:34:12;;;;;;;11.10;4.50;;;5.90;99.90;;;;;;4993714;28;20833;-83
2022/11/25 11:37:11;;;;;;;5.50;3.53;;;5.90;99.90;;;;;;4993758;28;20422;-82
2022/11/25 11:40:20;;;;;;;7.50;4.03;;;6.00;99.90;;;;;;4993540;28;20468;-83
2022/11/25 11:43:04;;;;;;;8.43;4.47;;;6.00;99.90;;;;;;4993667;28;20475;-82
2022/11/25 11:45:29;;;;;;;6.37;3.70;;;6.00;99.90;;;;;;4993598;28;20414;-83
2022/11/25 11:48:16;;;;;;;8.50;4.40;;;6.00;99.90;;;;;;4976107;28;20842;-82
2022/11/25 11:50:48;;;;;;;8.90;3.70;;;6.00;99.90;;;;;;4993643;28;20511;-82
2022/11/25 11:53:31;;;;;;;5.07;3.10;;;6.00;99.90;;;;;;4976127;28;20455;-82
2022/11/25 11:56:28;;;;;;;8.77;3.33;;;6.10;99.90;;;;;;4976095;28;20432;-82
2022/11/25 11:59:11;;;;;;;11.00;4.77;;;6.00;99.90;;;;;;4993315;28;20807;-82
2022/11/25 12:01:57;;;;;;;12.40;5.20;;;6.10;99.90;;;;;;4976242;28;20433;-84
2022/11/25 12:04:48;;;;;;;11.20;5.60;;;6.10;99.90;;;;;;4976152;28;20952;-82
2022/11/25 12:07:20;;;;;;;8.70;5.43;;;6.10;99.90;;;;;;4970127;28;20461;-83
2022/11/25 12:10:14;;;;;;;10.43;4.43;;;6.10;99.90;;;;;;5012390;28;20502;-83
2022/11/25 12:12:48;;;;;;;8.17;5.10;;;6.10;99.90;;;;;;4994679;28;20425;-83
2022/11/25 12:15:56;;;;;;;11.77;5.50;;;6.10;99.90;;;;;;5012127;28;20763;-89
2022/11/25 12:18:33;;;;;;;7.07;3.63;;;6.10;99.90;;;;;;4969241;28;20417;-84
2022/11/25 12:21:04;;;;;;;6.47;3.63;;;6.10;99.90;;;;;;5012902;28;20547;-89
2022/11/25 12:23:53;;;;;;;4.23;2.80;;;6.10;99.90;;;;;;5012919;28;20414;-83
2022/11/25 12:26:27;;;;;;;5.50;3.63;;;6.10;99.90;;;;;;5016535;28;20520;-83
2022/11/25 12:29:04;;;;;;;15.73;3.83;;;6.20;99.90;;;;;;4998605;28;20502;-83
2022/11/25 12:31:42;;;;;;;9.27;4.43;;;6.20;99.90;;;;;;5016597;28;20772;-84
2022/11/25 12:34:29;;;;;;;11.87;4.43;;;6.30;99.90;;;;;;5016745;28;20428;-84
2022/11/25 12:37:04;;;;;;;9.20;4.10;;;6.30;99.90;;;;;;5016704;28;20431;-83
2022/11/25 12:39:43;;;;;;;9.83;4.60;;;6.30;99.90;;;;;;4998963;28;20954;-83
2022/11/25 12:42:21;;;;;;;8.57;4.57;;;6.40;99.90;;;;;;4999143;28;20957;-84
2022/11/25 12:45:02;;;;;;;11.90;5.03;;;6.40;99.90;;;;;;5016190;28;20448;-88
2022/11/25 12:47:28;;;;;;;8.03;4.33;;;6.40;99.90;;;;;;5016452;28;20461;-83
2022/11/25 12:49:55;;;;;;;6.30;3.10;;;6.50;99.90;;;;;;5016276;28;20507;-87
2022/11/25 12:52:42;;;;;;;6.20;3.77;;;6.50;99.90;;;;;;4996966;28;20180;-84
2022/11/25 12:55:23;;;;;;;9.77;4.00;;;6.50;99.90;;;;;;4988185;28;20417;-89
2022/11/25 12:58:05;;;;;;;6.00;3.40;;;6.50;99.90;;;;;;4982386;28;20412;-89
2022/11/25 13:00:50;;;;;;;5.87;3.20;;;6.50;99.90;;;;;;4971020;28;20462;-90
2022/11/25 13:03:30;;;;;;;8.20;4.70;;;6.60;99.90;;;;;;4979048;28;21043;-85
2022/11/25 13:06:47;;;;;;;10.00;3.87;;;6.60;99.90;;;;;;4979625;28;20417;-88
2022/11/25 13:09:42;;;;;;;10.00;5.17;;;6.60;99.90;;;;;;4963130;28;20493;-85
2022/11/25 13:12:47;;;;;;;5.50;3.57;;;6.60;99.90;;;;;;4979889;28;20446;-90
2022/11/25 13:15:29;;;;;;;6.60;2.90;;;6.70;99.90;;;;;;4956416;28;20431;-83
2022/11/25 13:17:59;;;;;;;6.37;3.90;;;6.70;99.90;;;;;;4979031;28;20418;-85
2022/11/25 13:20:27;;;;;;;10.00;4.03;;;6.70;99.90;;;;;;4955296;28;20573;-85
2022/11/25 13:23:21;;;;;;;6.77;3.20;;;6.70;99.90;;;;;;4978400;28;20483;-84
2022/11/25 13:25:48;;;;;;;6.47;3.20;;;6.70;99.90;;;;;;4990499;28;20420;-90